sensor_id;sensor_type;location;lat;lon;timestamp;pressure;altitude;pressure_sealevel;temperature;humidity
54329;BME280;40710;51.120;13.136;2023-11-21T00:01:55;98692.09;;;13.96;59.90
54329;BME280;40710;51.120;13.136;2023-11-21T00:04:19;98693.91;;;14.18;59.05
54329;BME280;40710;51.120;13.136;2023-11-21T00:06:44;98691.97;;;14.32;58.50
54329;BME280;40710;51.120;13.136;2023-11-21T00:09:11;98693.84;;;13.62;60.51
54329;BME280;40710;51.120;13.136;2023-11-21T00:11:37;98690.44;;;13.37;61.08
54329;BME280;40710;51.120;13.136;2023-11-21T00:14:02;98695.56;;;13.86;60.81
54329;BME280;40710;51.120;13.136;2023-11-21T00:16:27;98678.06;;;14.85;57.39
54329;BME280;40710;51.120;13.136;2023-11-21T00:18:51;98681.44;;;13.87;58.75
54329;BME280;40710;51.120;13.136;2023-11-21T00:21:16;98699.19;;;12.78;62.82
54329;BME280;40710;51.120;13.136;2023-11-21T00:23:40;98701.84;;;13.14;62.07
54329;BME280;40710;51.120;13.136;2023-11-21T00:26:05;98700.34;;;13.58;60.26
54329;BME280;40710;51.120;13.136;2023-11-21T00:28:30;98716.00;;;12.64;63.30
54329;BME280;40710;51.120;13.136;2023-11-21T00:30:54;98721.44;;;12.37;64.36
54329;BME280;40710;51.120;13.136;2023-11-21T00:33:19;98706.84;;;12.81;62.92
54329;BME280;40710;51.120;13.136;2023-11-21T00:35:43;98723.78;;;12.16;65.07
54329;BME280;40710;51.120;13.136;2023-11-21T00:38:08;98713.53;;;12.98;62.13
54329;BME280;40710;51.120;13.136;2023-11-21T00:40:33;98722.50;;;13.20;62.14
54329;BME280;40710;51.120;13.136;2023-11-21T00:42:58;98709.41;;;13.42;61.25
54329;BME280;40710;51.120;13.136;2023-11-21T00:45:22;98714.66;;;13.07;61.65
54329;BME280;40710;51.120;13.136;2023-11-21T00:47:47;98729.84;;;12.55;63.75
54329;BME280;40710;51.120;13.136;2023-11-21T00:50:11;98723.34;;;13.20;62.10
54329;BME280;40710;51.120;13.136;2023-11-21T00:52:36;98716.97;;;13.12;62.72
54329;BME280;40710;51.120;13.136;2023-11-21T00:55:01;98714.78;;;13.41;61.72
54329;BME280;40710;51.120;13.136;2023-11-21T00:57:27;98720.78;;;12.83;61.79
54329;BME280;40710;51.120;13.136;2023-11-21T00:59:51;98732.84;;;12.38;63.57
54329;BME280;40710;51.120;13.136;2023-11-21T01:02:16;98736.34;;;12.62;63.62
54329;BME280;40710;51.120;13.136;2023-11-21T01:04:40;98735.69;;;12.22;63.71
54329;BME280;40710;51.120;13.136;2023-11-21T01:07:05;98726.09;;;12.95;62.32
54329;BME280;40710;51.120;13.136;2023-11-21T01:09:29;98738.22;;;13.21;61.95
54329;BME280;40710;51.120;13.136;2023-11-21T01:11:54;98744.63;;;12.45;63.70
54329;BME280;40710;51.120;13.136;2023-11-21T01:14:19;98735.97;;;13.28;62.06
54329;BME280;40710;51.120;13.136;2023-11-21T01:16:43;98739.13;;;13.09;61.42
54329;BME280;40710;51.120;13.136;2023-11-21T01:19:08;98732.09;;;13.21;61.44
54329;BME280;40710;51.120;13.136;2023-11-21T01:21:33;98739.41;;;12.93;63.27
54329;BME280;40710;51.120;13.136;2023-11-21T01:23:58;98748.19;;;12.44;63.08
54329;BME280;40710;51.120;13.136;2023-11-21T01:26:22;98740.50;;;12.41;63.14
54329;BME280;40710;51.120;13.136;2023-11-21T01:28:47;98739.41;;;12.93;62.15
54329;BME280;40710;51.120;13.136;2023-11-21T01:31:13;98752.56;;;12.19;64.63
54329;BME280;40710;51.120;13.136;2023-11-21T01:33:37;98736.47;;;13.09;61.40
54329;BME280;40710;51.120;13.136;2023-11-21T01:36:02;98756.44;;;11.88;65.10
54329;BME280;40710;51.120;13.136;2023-11-21T01:38:26;98756.03;;;12.33;63.86
54329;BME280;40710;51.120;13.136;2023-11-21T01:40:51;98738.38;;;12.83;62.30
54329;BME280;40710;51.120;13.136;2023-11-21T01:43:16;98744.25;;;12.25;63.88
54329;BME280;40710;51.120;13.136;2023-11-21T01:45:41;98739.50;;;12.92;62.43
54329;BME280;40710;51.120;13.136;2023-11-21T01:48:05;98733.34;;;12.80;62.45
54329;BME280;40710;51.120;13.136;2023-11-21T01:50:31;98736.00;;;12.80;62.04
54329;BME280;40710;51.120;13.136;2023-11-21T01:52:56;98735.22;;;12.78;61.91
54329;BME280;40710;51.120;13.136;2023-11-21T01:55:22;98732.91;;;13.10;61.24
54329;BME280;40710;51.120;13.136;2023-11-21T01:57:47;98741.31;;;12.54;62.15
54329;BME280;40710;51.120;13.136;2023-11-21T02:00:12;98747.41;;;12.67;62.29
54329;BME280;40710;51.120;13.136;2023-11-21T02:02:42;98753.06;;;12.50;62.98
54329;BME280;40710;51.120;13.136;2023-11-21T02:05:08;98758.69;;;12.07;64.12
54329;BME280;40710;51.120;13.136;2023-11-21T02:07:33;98772.75;;;11.80;65.21
54329;BME280;40710;51.120;13.136;2023-11-21T02:09:59;98748.78;;;12.60;62.34
54329;BME280;40710;51.120;13.136;2023-11-21T02:12:23;98753.91;;;12.38;62.67
54329;BME280;40710;51.120;13.136;2023-11-21T02:14:50;98758.75;;;12.18;64.03
54329;BME280;40710;51.120;13.136;2023-11-21T02:17:15;98745.78;;;12.78;62.04
54329;BME280;40710;51.120;13.136;2023-11-21T02:19:40;98740.13;;;12.95;61.34
54329;BME280;40710;51.120;13.136;2023-11-21T02:22:06;98742.94;;;13.05;60.96
54329;BME280;40710;51.120;13.136;2023-11-21T02:24:31;98751.34;;;12.49;61.80
54329;BME280;40710;51.120;13.136;2023-11-21T02:26:56;98750.75;;;13.07;60.57
54329;BME280;40710;51.120;13.136;2023-11-21T02:29:21;98748.03;;;12.95;61.43
54329;BME280;40710;51.120;13.136;2023-11-21T02:31:53;98753.38;;;12.82;62.18
54329;BME280;40710;51.120;13.136;2023-11-21T02:34:18;98747.53;;;13.14;60.81
54329;BME280;40710;51.120;13.136;2023-11-21T02:36:44;98767.59;;;12.30;62.50
54329;BME280;40710;51.120;13.136;2023-11-21T02:39:09;98758.59;;;12.95;61.38
54329;BME280;40710;51.120;13.136;2023-11-21T02:41:34;98749.13;;;13.17;60.46
54329;BME280;40710;51.120;13.136;2023-11-21T02:43:59;98756.56;;;13.23;60.31
54329;BME280;40710;51.120;13.136;2023-11-21T02:46:23;98774.19;;;12.61;61.70
54329;BME280;40710;51.120;13.136;2023-11-21T02:48:48;98758.09;;;13.14;61.02
54329;BME280;40710;51.120;13.136;2023-11-21T02:51:12;98757.38;;;13.36;60.00
54329;BME280;40710;51.120;13.136;2023-11-21T02:53:37;98762.66;;;13.36;60.13
54329;BME280;40710;51.120;13.136;2023-11-21T02:56:03;98768.16;;;12.85;60.09
54329;BME280;40710;51.120;13.136;2023-11-21T02:58:27;98768.00;;;12.62;60.98
54329;BME280;40710;51.120;13.136;2023-11-21T03:00:52;98758.94;;;13.15;60.41
54329;BME280;40710;51.120;13.136;2023-11-21T03:03:16;98762.69;;;13.23;60.09
54329;BME280;40710;51.120;13.136;2023-11-21T03:05:41;98752.34;;;13.33;59.83
54329;BME280;40710;51.120;13.136;2023-11-21T03:08:05;98752.88;;;13.26;59.91
54329;BME280;40710;51.120;13.136;2023-11-21T03:10:30;98768.88;;;12.50;61.92
54329;BME280;40710;51.120;13.136;2023-11-21T03:12:54;98746.84;;;13.48;59.26
54329;BME280;40710;51.120;13.136;2023-11-21T03:15:19;98761.34;;;13.18;59.70
54329;BME280;40710;51.120;13.136;2023-11-21T03:17:44;98757.03;;;13.88;57.78
54329;BME280;40710;51.120;13.136;2023-11-21T03:20:08;98756.22;;;13.87;57.73
54329;BME280;40710;51.120;13.136;2023-11-21T03:22:38;98756.81;;;13.91;57.89
54329;BME280;40710;51.120;13.136;2023-11-21T03:25:03;98758.78;;;13.29;59.83
54329;BME280;40710;51.120;13.136;2023-11-21T03:27:28;98757.47;;;13.11;59.97
54329;BME280;40710;51.120;13.136;2023-11-21T03:29:52;98763.47;;;13.13;60.26
54329;BME280;40710;51.120;13.136;2023-11-21T03:32:19;98762.59;;;13.49;59.09
54329;BME280;40710;51.120;13.136;2023-11-21T03:34:57;98762.69;;;13.48;59.17
54329;BME280;40710;51.120;13.136;2023-11-21T03:37:22;98764.56;;;13.70;57.87
54329;BME280;40710;51.120;13.136;2023-11-21T03:39:46;98765.09;;;13.86;58.30
54329;BME280;40710;51.120;13.136;2023-11-21T03:42:11;98763.75;;;13.80;58.01
54329;BME280;40710;51.120;13.136;2023-11-21T03:44:36;98768.56;;;13.40;59.26
54329;BME280;40710;51.120;13.136;2023-11-21T03:47:00;98765.56;;;13.45;59.20
54329;BME280;40710;51.120;13.136;2023-11-21T03:49:25;98761.28;;;13.55;58.20
54329;BME280;40710;51.120;13.136;2023-11-21T03:51:49;98759.28;;;13.70;58.66
54329;BME280;40710;51.120;13.136;2023-11-21T03:54:14;98753.75;;;13.61;58.29
54329;BME280;40710;51.120;13.136;2023-11-21T03:56:38;98770.63;;;12.99;59.61
54329;BME280;40710;51.120;13.136;2023-11-21T03:59:03;98765.81;;;13.41;58.64
54329;BME280;40710;51.120;13.136;2023-11-21T04:01:28;98783.00;;;12.86;60.20
54329;BME280;40710;51.120;13.136;2023-11-21T04:03:52;98777.41;;;13.15;60.59
54329;BME280;40710;51.120;13.136;2023-11-21T04:06:17;98781.56;;;12.69;60.44
54329;BME280;40710;51.120;13.136;2023-11-21T04:08:43;98771.13;;;13.53;58.90
54329;BME280;40710;51.120;13.136;2023-11-21T04:11:08;98771.31;;;13.38;59.41
54329;BME280;40710;51.120;13.136;2023-11-21T04:13:32;98770.41;;;13.51;59.09
54329;BME280;40710;51.120;13.136;2023-11-21T04:15:57;98771.19;;;13.40;59.16
54329;BME280;40710;51.120;13.136;2023-11-21T04:18:21;98780.03;;;12.54;60.06
54329;BME280;40710;51.120;13.136;2023-11-21T04:20:46;98778.69;;;13.09;59.84
54329;BME280;40710;51.120;13.136;2023-11-21T04:23:12;98793.63;;;12.97;60.38
54329;BME280;40710;51.120;13.136;2023-11-21T04:25:38;98780.94;;;13.27;59.45
54329;BME280;40710;51.120;13.136;2023-11-21T04:28:02;98794.06;;;12.91;60.03
54329;BME280;40710;51.120;13.136;2023-11-21T04:30:27;98786.31;;;13.25;59.38
54329;BME280;40710;51.120;13.136;2023-11-21T04:32:51;98797.72;;;12.64;60.96
54329;BME280;40710;51.120;13.136;2023-11-21T04:35:16;98802.06;;;12.90;61.17
54329;BME280;40710;51.120;13.136;2023-11-21T04:37:41;98791.13;;;13.44;59.13
54329;BME280;40710;51.120;13.136;2023-11-21T04:40:05;98789.66;;;13.40;58.78
54329;BME280;40710;51.120;13.136;2023-11-21T04:42:31;98804.44;;;13.05;60.36
54329;BME280;40710;51.120;13.136;2023-11-21T04:44:55;98798.34;;;13.29;59.68
54329;BME280;40710;51.120;13.136;2023-11-21T04:47:20;98799.88;;;13.45;59.73
54329;BME280;40710;51.120;13.136;2023-11-21T04:49:46;98804.75;;;13.14;59.86
54329;BME280;40710;51.120;13.136;2023-11-21T04:52:11;98805.00;;;13.35;59.59
54329;BME280;40710;51.120;13.136;2023-11-21T04:54:36;98810.34;;;13.09;59.69
54329;BME280;40710;51.120;13.136;2023-11-21T04:57:00;98807.53;;;13.36;58.98
54329;BME280;40710;51.120;13.136;2023-11-21T04:59:25;98818.38;;;12.58;61.24
54329;BME280;40710;51.120;13.136;2023-11-21T05:01:51;98824.16;;;12.76;60.76
54329;BME280;40710;51.120;13.136;2023-11-21T05:04:15;98827.47;;;12.54;61.42
54329;BME280;40710;51.120;13.136;2023-11-21T05:06:40;98817.41;;;13.09;59.88
54329;BME280;40710;51.120;13.136;2023-11-21T05:09:04;98822.91;;;13.05;59.85
54329;BME280;40710;51.120;13.136;2023-11-21T05:11:29;98813.22;;;13.06;59.76
54329;BME280;40710;51.120;13.136;2023-11-21T05:13:53;98823.88;;;13.04;59.80
54329;BME280;40710;51.120;13.136;2023-11-21T05:16:20;98824.34;;;12.85;60.20
54329;BME280;40710;51.120;13.136;2023-11-21T05:18:44;98826.34;;;13.19;59.56
54329;BME280;40710;51.120;13.136;2023-11-21T05:21:09;98826.66;;;13.27;59.26
54329;BME280;40710;51.120;13.136;2023-11-21T05:23:34;98836.81;;;12.71;60.28
54329;BME280;40710;51.120;13.136;2023-11-21T05:25:58;98829.69;;;13.10;59.53
54329;BME280;40710;51.120;13.136;2023-11-21T05:28:23;98839.22;;;12.86;60.50
54329;BME280;40710;51.120;13.136;2023-11-21T05:30:47;98848.84;;;12.75;61.03
54329;BME280;40710;51.120;13.136;2023-11-21T05:33:13;98835.31;;;12.79;60.46
54329;BME280;40710;51.120;13.136;2023-11-21T05:35:38;98833.69;;;13.02;59.91
54329;BME280;40710;51.120;13.136;2023-11-21T05:38:02;98838.16;;;12.89;60.10
54329;BME280;40710;51.120;13.136;2023-11-21T05:40:27;98834.44;;;13.04;59.73
54329;BME280;40710;51.120;13.136;2023-11-21T05:42:54;98830.00;;;13.05;59.47
54329;BME280;40710;51.120;13.136;2023-11-21T05:45:18;98837.44;;;13.11;59.43
54329;BME280;40710;51.120;13.136;2023-11-21T05:47:45;98841.06;;;13.10;59.23
54329;BME280;40710;51.120;13.136;2023-11-21T05:50:11;98843.22;;;12.79;60.60
54329;BME280;40710;51.120;13.136;2023-11-21T05:52:38;98843.22;;;12.79;60.95
54329;BME280;40710;51.120;13.136;2023-11-21T05:55:04;98851.88;;;12.81;60.58
54329;BME280;40710;51.120;13.136;2023-11-21T05:57:32;98848.88;;;12.99;60.33
54329;BME280;40710;51.120;13.136;2023-11-21T05:59:56;98849.06;;;13.09;60.01
54329;BME280;40710;51.120;13.136;2023-11-21T06:02:21;98849.03;;;13.21;59.58
54329;BME280;40710;51.120;13.136;2023-11-21T06:04:45;98835.69;;;13.60;58.46
54329;BME280;40710;51.120;13.136;2023-11-21T06:07:10;98842.78;;;13.35;59.07
54329;BME280;40710;51.120;13.136;2023-11-21T06:09:34;98852.38;;;12.86;60.62
54329;BME280;40710;51.120;13.136;2023-11-21T06:11:59;98847.00;;;13.01;60.40
54329;BME280;40710;51.120;13.136;2023-11-21T06:14:24;98849.16;;;13.33;59.81
54329;BME280;40710;51.120;13.136;2023-11-21T06:16:48;98849.63;;;13.62;58.70
54329;BME280;40710;51.120;13.136;2023-11-21T06:19:15;98851.09;;;13.66;58.43
54329;BME280;40710;51.120;13.136;2023-11-21T06:21:39;98843.88;;;14.04;57.18
54329;BME280;40710;51.120;13.136;2023-11-21T06:24:05;98850.38;;;13.64;58.03
54329;BME280;40710;51.120;13.136;2023-11-21T06:26:29;98857.44;;;13.64;57.99
54329;BME280;40710;51.120;13.136;2023-11-21T06:28:56;98867.78;;;13.42;58.34
54329;BME280;40710;51.120;13.136;2023-11-21T06:31:21;98865.25;;;13.65;58.25
54329;BME280;40710;51.120;13.136;2023-11-21T06:33:46;98872.78;;;13.34;58.70
54329;BME280;40710;51.120;13.136;2023-11-21T06:36:11;98873.44;;;13.73;58.33
54329;BME280;40710;51.120;13.136;2023-11-21T06:38:38;98881.56;;;13.59;58.70
54329;BME280;40710;51.120;13.136;2023-11-21T06:41:02;98879.75;;;13.84;58.09
54329;BME280;40710;51.120;13.136;2023-11-21T06:43:28;98888.09;;;13.16;59.47
54329;BME280;40710;51.120;13.136;2023-11-21T06:45:53;98890.91;;;13.39;59.03
54329;BME280;40710;51.120;13.136;2023-11-21T06:48:17;98882.53;;;13.93;58.03
54329;BME280;40710;51.120;13.136;2023-11-21T06:50:42;98873.78;;;14.04;56.93
54329;BME280;40710;51.120;13.136;2023-11-21T06:53:06;98877.78;;;14.10;56.76
54329;BME280;40710;51.120;13.136;2023-11-21T06:55:32;98899.81;;;13.38;59.67
54329;BME280;40710;51.120;13.136;2023-11-21T06:57:57;98893.19;;;13.92;58.43
54329;BME280;40710;51.120;13.136;2023-11-21T07:00:22;98892.63;;;13.27;59.59
54329;BME280;40710;51.120;13.136;2023-11-21T07:02:47;98892.03;;;13.48;58.87
54329;BME280;40710;51.120;13.136;2023-11-21T07:05:11;98899.56;;;12.78;61.05
54329;BME280;40710;51.120;13.136;2023-11-21T07:07:38;98899.22;;;12.96;60.60
54329;BME280;40710;51.120;13.136;2023-11-21T07:10:03;98900.94;;;13.47;59.30
54329;BME280;40710;51.120;13.136;2023-11-21T07:12:28;98905.19;;;13.36;59.68
54329;BME280;40710;51.120;13.136;2023-11-21T07:14:53;98897.63;;;13.06;59.85
54329;BME280;40710;51.120;13.136;2023-11-21T07:17:17;98907.34;;;13.55;59.58
54329;BME280;40710;51.120;13.136;2023-11-21T07:19:42;98901.13;;;13.92;58.66
54329;BME280;40710;51.120;13.136;2023-11-21T07:22:06;98907.88;;;13.48;60.10
54329;BME280;40710;51.120;13.136;2023-11-21T07:24:32;98915.81;;;12.85;61.53
54329;BME280;40710;51.120;13.136;2023-11-21T07:26:57;98922.03;;;12.84;61.44
54329;BME280;40710;51.120;13.136;2023-11-21T07:29:23;98921.66;;;13.27;60.75
54329;BME280;40710;51.120;13.136;2023-11-21T07:31:49;98920.00;;;13.13;60.82
54329;BME280;40710;51.120;13.136;2023-11-21T07:34:15;98918.44;;;13.48;60.16
54329;BME280;40710;51.120;13.136;2023-11-21T07:36:39;98917.13;;;13.66;59.35
54329;BME280;40710;51.120;13.136;2023-11-21T07:39:04;98924.69;;;13.71;59.66
54329;BME280;40710;51.120;13.136;2023-11-21T07:41:28;98915.38;;;13.54;60.13
54329;BME280;40710;51.120;13.136;2023-11-21T07:43:53;98924.44;;;13.50;60.58
54329;BME280;40710;51.120;13.136;2023-11-21T07:46:20;98934.53;;;13.19;61.39
54329;BME280;40710;51.120;13.136;2023-11-21T07:48:45;98945.63;;;12.34;62.58
54329;BME280;40710;51.120;13.136;2023-11-21T07:51:10;98941.53;;;12.94;62.58
54329;BME280;40710;51.120;13.136;2023-11-21T07:53:35;98936.22;;;13.33;61.39
54329;BME280;40710;51.120;13.136;2023-11-21T07:56:04;98938.03;;;13.56;60.38
54329;BME280;40710;51.120;13.136;2023-11-21T07:58:29;98933.53;;;13.46;60.00
54329;BME280;40710;51.120;13.136;2023-11-21T08:00:55;98930.34;;;13.77;59.69
54329;BME280;40710;51.120;13.136;2023-11-21T08:03:19;98942.13;;;13.36;60.98
54329;BME280;40710;51.120;13.136;2023-11-21T08:05:45;98954.06;;;13.03;61.79
54329;BME280;40710;51.120;13.136;2023-11-21T08:08:09;98955.84;;;13.16;62.19
54329;BME280;40710;51.120;13.136;2023-11-21T08:10:34;98958.09;;;12.96;63.10
54329;BME280;40710;51.120;13.136;2023-11-21T08:13:00;98953.28;;;13.77;61.00
54329;BME280;40710;51.120;13.136;2023-11-21T08:15:24;98961.28;;;13.51;61.63
54329;BME280;40710;51.120;13.136;2023-11-21T08:17:49;98958.50;;;13.41;62.22
54329;BME280;40710;51.120;13.136;2023-11-21T08:20:14;98962.38;;;13.49;62.30
54329;BME280;40710;51.120;13.136;2023-11-21T08:22:40;98966.84;;;12.97;63.79
54329;BME280;40710;51.120;13.136;2023-11-21T08:25:05;98978.41;;;13.46;62.10
54329;BME280;40710;51.120;13.136;2023-11-21T08:27:30;98977.78;;;13.42;61.92
54329;BME280;40710;51.120;13.136;2023-11-21T08:29:54;98973.81;;;13.73;61.42
54329;BME280;40710;51.120;13.136;2023-11-21T08:32:19;98986.25;;;12.57;64.47
54329;BME280;40710;51.120;13.136;2023-11-21T08:34:43;98981.81;;;13.35;62.91
54329;BME280;40710;51.120;13.136;2023-11-21T08:37:10;98980.66;;;13.26;62.55
54329;BME280;40710;51.120;13.136;2023-11-21T08:39:36;98981.09;;;13.33;63.10
54329;BME280;40710;51.120;13.136;2023-11-21T08:42:01;98980.13;;;13.71;62.08
54329;BME280;40710;51.120;13.136;2023-11-21T08:44:26;98981.94;;;13.33;62.72
54329;BME280;40710;51.120;13.136;2023-11-21T08:46:51;98999.75;;;12.65;64.71
54329;BME280;40710;51.120;13.136;2023-11-21T08:49:15;98991.31;;;13.37;62.52
54329;BME280;40710;51.120;13.136;2023-11-21T08:51:41;98985.59;;;13.43;62.51
54329;BME280;40710;51.120;13.136;2023-11-21T08:54:05;98982.59;;;13.61;62.67
54329;BME280;40710;51.120;13.136;2023-11-21T08:56:32;98985.41;;;13.71;61.49
54329;BME280;40710;51.120;13.136;2023-11-21T08:58:57;98999.31;;;13.23;62.94
54329;BME280;40710;51.120;13.136;2023-11-21T09:01:21;99012.66;;;12.96;63.37
54329;BME280;40710;51.120;13.136;2023-11-21T09:03:46;99021.97;;;12.08;65.52
54329;BME280;40710;51.120;13.136;2023-11-21T09:06:11;99015.47;;;13.05;64.69
54329;BME280;40710;51.120;13.136;2023-11-21T09:08:36;99023.59;;;12.90;63.74
54329;BME280;40710;51.120;13.136;2023-11-21T09:11:01;99009.47;;;13.16;63.27
54329;BME280;40710;51.120;13.136;2023-11-21T09:13:26;99030.97;;;12.59;65.14
54329;BME280;40710;51.120;13.136;2023-11-21T09:15:52;99039.72;;;12.32;65.39
54329;BME280;40710;51.120;13.136;2023-11-21T09:18:16;99036.34;;;12.70;63.64
54329;BME280;40710;51.120;13.136;2023-11-21T09:20:42;99037.78;;;12.48;63.61
54329;BME280;40710;51.120;13.136;2023-11-21T09:23:08;99048.63;;;12.44;62.96
54329;BME280;40710;51.120;13.136;2023-11-21T09:25:32;99051.22;;;12.31;63.12
54329;BME280;40710;51.120;13.136;2023-11-21T09:27:57;99055.59;;;12.45;62.21
54329;BME280;40710;51.120;13.136;2023-11-21T09:30:22;99065.19;;;11.63;64.39
54329;BME280;40710;51.120;13.136;2023-11-21T09:32:48;99062.66;;;12.17;62.99
54329;BME280;40710;51.120;13.136;2023-11-21T09:35:14;99064.78;;;11.98;63.08
54329;BME280;40710;51.120;13.136;2023-11-21T09:37:39;99067.69;;;11.79;63.19
54329;BME280;40710;51.120;13.136;2023-11-21T09:40:04;99075.59;;;11.93;62.58
54329;BME280;40710;51.120;13.136;2023-11-21T09:42:38;99077.41;;;11.78;62.87
54329;BME280;40710;51.120;13.136;2023-11-21T09:47:39;99078.53;;;11.60;61.77
54329;BME280;40710;51.120;13.136;2023-11-21T09:50:04;99078.66;;;12.14;61.26
54329;BME280;40710;51.120;13.136;2023-11-21T09:53:02;99087.75;;;11.24;63.18
54329;BME280;40710;51.120;13.136;2023-11-21T09:55:27;99082.19;;;11.71;61.95
54329;BME280;40710;51.120;13.136;2023-11-21T09:57:54;99082.53;;;11.80;61.13
54329;BME280;40710;51.120;13.136;2023-11-21T10:00:21;99096.00;;;11.75;61.83
54329;BME280;40710;51.120;13.136;2023-11-21T10:02:47;99095.81;;;11.78;61.16
54329;BME280;40710;51.120;13.136;2023-11-21T10:05:14;99108.88;;;11.37;62.33
54329;BME280;40710;51.120;13.136;2023-11-21T10:07:42;99107.00;;;11.67;62.70
54329;BME280;40710;51.120;13.136;2023-11-21T10:10:09;99101.75;;;11.96;61.24
54329;BME280;40710;51.120;13.136;2023-11-21T10:12:34;99097.06;;;12.28;60.78
54329;BME280;40710;51.120;13.136;2023-11-21T10:15:00;99101.84;;;11.80;61.89
54329;BME280;40710;51.120;13.136;2023-11-21T10:17:28;99103.00;;;11.90;61.90
54329;BME280;40710;51.120;13.136;2023-11-21T10:19:56;99104.44;;;12.09;61.78
54329;BME280;40710;51.120;13.136;2023-11-21T10:22:21;99090.72;;;12.04;60.35
54329;BME280;40710;51.120;13.136;2023-11-21T10:24:46;99095.41;;;12.40;60.73
54329;BME280;40710;51.120;13.136;2023-11-21T10:27:10;99096.25;;;12.14;60.34
54329;BME280;40710;51.120;13.136;2023-11-21T10:29:35;99102.88;;;12.06;60.73
54329;BME280;40710;51.120;13.136;2023-11-21T10:32:00;99109.84;;;11.93;61.58
54329;BME280;40710;51.120;13.136;2023-11-21T10:34:24;99115.56;;;11.71;61.64
54329;BME280;40710;51.120;13.136;2023-11-21T10:36:49;99132.66;;;11.49;62.05
54329;BME280;40710;51.120;13.136;2023-11-21T10:39:18;99131.16;;;11.45;62.08
54329;BME280;40710;51.120;13.136;2023-11-21T10:41:44;99133.06;;;11.43;62.45
54329;BME280;40710;51.120;13.136;2023-11-21T10:44:10;99135.19;;;11.65;61.98
54329;BME280;40710;51.120;13.136;2023-11-21T10:46:35;99143.19;;;11.35;61.87
54329;BME280;40710;51.120;13.136;2023-11-21T10:49:00;99138.78;;;11.64;61.04
54329;BME280;40710;51.120;13.136;2023-11-21T10:51:25;99132.13;;;12.02;60.25
54329;BME280;40710;51.120;13.136;2023-11-21T10:53:51;99136.34;;;11.76;60.45
54329;BME280;40710;51.120;13.136;2023-11-21T10:56:18;99144.31;;;11.60;61.25
54329;BME280;40710;51.120;13.136;2023-11-21T10:58:45;99137.97;;;11.93;60.53
54329;BME280;40710;51.120;13.136;2023-11-21T11:01:11;99144.53;;;12.00;60.79
54329;BME280;40710;51.120;13.136;2023-11-21T11:03:38;99142.53;;;11.89;61.07
54329;BME280;40710;51.120;13.136;2023-11-21T11:06:04;99159.88;;;11.93;61.41
54329;BME280;40710;51.120;13.136;2023-11-21T11:08:32;99151.75;;;12.10;60.29
54329;BME280;40710;51.120;13.136;2023-11-21T11:10:57;99153.53;;;11.67;60.47
54329;BME280;40710;51.120;13.136;2023-11-21T11:13:23;99156.38;;;11.78;60.97
54329;BME280;40710;51.120;13.136;2023-11-21T11:15:48;99167.84;;;11.48;61.52
54329;BME280;40710;51.120;13.136;2023-11-21T11:18:14;99169.66;;;11.32;62.26
54329;BME280;40710;51.120;13.136;2023-11-21T11:20:42;99167.44;;;11.69;61.23
54329;BME280;40710;51.120;13.136;2023-11-21T11:23:46;99168.75;;;11.62;61.40
54329;BME280;40710;51.120;13.136;2023-11-21T11:35:04;99172.03;;;11.37;63.00
54329;BME280;40710;51.120;13.136;2023-11-21T11:37:32;99160.22;;;11.87;61.16
54329;BME280;40710;51.120;13.136;2023-11-21T11:39:56;99158.44;;;12.02;61.17
54329;BME280;40710;51.120;13.136;2023-11-21T11:42:22;99167.84;;;11.77;61.10
54329;BME280;40710;51.120;13.136;2023-11-21T11:44:49;99168.59;;;11.94;61.20
54329;BME280;40710;51.120;13.136;2023-11-21T11:47:28;99170.84;;;11.71;61.20
54329;BME280;40710;51.120;13.136;2023-11-21T11:50:03;99176.47;;;11.79;60.73
54329;BME280;40710;51.120;13.136;2023-11-21T11:52:48;99168.22;;;12.14;60.08
54329;BME280;40710;51.120;13.136;2023-11-21T11:55:16;99181.78;;;11.94;60.64
54329;BME280;40710;51.120;13.136;2023-11-21T11:57:46;99180.44;;;11.86;60.67
54329;BME280;40710;51.120;13.136;2023-11-21T12:00:22;99191.22;;;11.53;61.38
54329;BME280;40710;51.120;13.136;2023-11-21T12:02:51;99181.22;;;12.17;59.79
54329;BME280;40710;51.120;13.136;2023-11-21T12:05:21;99194.28;;;11.31;61.35
54329;BME280;40710;51.120;13.136;2023-11-21T12:10:21;99174.44;;;11.99;60.27
54329;BME280;40710;51.120;13.136;2023-11-21T12:12:49;99185.50;;;11.61;60.77
54329;BME280;40710;51.120;13.136;2023-11-21T12:15:14;99178.94;;;11.82;60.67
54329;BME280;40710;51.120;13.136;2023-11-21T12:17:43;99193.31;;;11.77;60.11
54329;BME280;40710;51.120;13.136;2023-11-21T12:20:09;99192.09;;;11.68;60.36
54329;BME280;40710;51.120;13.136;2023-11-21T12:22:46;99190.66;;;11.62;60.03
54329;BME280;40710;51.120;13.136;2023-11-21T12:25:11;99207.03;;;11.23;60.96
54329;BME280;40710;51.120;13.136;2023-11-21T12:27:40;99197.69;;;11.47;60.14
54329;BME280;40710;51.120;13.136;2023-11-21T12:30:05;99200.66;;;11.86;59.37
54329;BME280;40710;51.120;13.136;2023-11-21T12:32:30;99205.25;;;11.68;59.61
54329;BME280;40710;51.120;13.136;2023-11-21T12:34:54;99205.03;;;11.42;59.13
54329;BME280;40710;51.120;13.136;2023-11-21T12:37:19;99222.22;;;11.48;59.81
54329;BME280;40710;51.120;13.136;2023-11-21T12:39:43;99212.69;;;11.90;59.04
54329;BME280;40710;51.120;13.136;2023-11-21T12:42:09;99219.00;;;11.87;58.74
54329;BME280;40710;51.120;13.136;2023-11-21T12:44:34;99222.38;;;11.75;58.42
54329;BME280;40710;51.120;13.136;2023-11-21T12:46:59;99227.28;;;11.06;59.93
54329;BME280;40710;51.120;13.136;2023-11-21T12:49:23;99235.94;;;11.08;59.96
54329;BME280;40710;51.120;13.136;2023-11-21T12:51:48;99245.97;;;10.86;61.02
54329;BME280;40710;51.120;13.136;2023-11-21T12:54:12;99239.16;;;11.13;59.81
54329;BME280;40710;51.120;13.136;2023-11-21T12:56:40;99244.00;;;11.35;59.24